createdAt,value
2022-09-12T00:02:13.491Z,3.17
2022-09-12T00:04:40.825Z,4.75
2022-09-12T00:07:08.389Z,3.53
2022-09-12T00:09:35.678Z,5.13
2022-09-12T00:12:03.255Z,10.38
2022-09-12T00:14:30.554Z,4.22
2022-09-12T00:16:59.653Z,3.15
2022-09-12T00:19:26.980Z,5.65
2022-09-12T00:21:54.301Z,2.97
2022-09-12T00:24:21.598Z,3.83
2022-09-12T00:26:48.898Z,2.83
2022-09-12T00:29:16.482Z,3.35
2022-09-12T00:31:43.788Z,4.13
2022-09-12T00:34:12.467Z,3.63
2022-09-12T00:36:39.807Z,3.55
2022-09-12T00:39:07.269Z,4.45
2022-09-12T00:41:34.976Z,4.00
2022-09-12T00:44:02.765Z,6.72
2022-09-12T00:46:32.010Z,3.67
2022-09-12T00:49:00.399Z,3.33
2022-09-12T00:51:29.081Z,2.95
2022-09-12T00:53:56.409Z,3.08
2022-09-12T00:56:23.769Z,2.90
2022-09-12T00:58:52.249Z,4.43
2022-09-12T01:01:19.690Z,2.90
2022-09-12T01:03:47.080Z,2.70
2022-09-12T01:06:16.375Z,3.13
2022-09-12T01:08:45.523Z,4.35
2022-09-12T01:11:13.280Z,3.08
2022-09-12T01:13:40.604Z,3.28
2022-09-12T01:16:08.142Z,2.75
2022-09-12T01:18:40.300Z,3.25
2022-09-12T01:21:10.186Z,7.65
2022-09-12T01:23:44.021Z,2.72
2022-09-12T01:26:19.509Z,2.67
2022-09-12T01:28:52.092Z,3.92
2022-09-12T01:31:21.321Z,3.75
2022-09-12T01:33:51.291Z,2.90
2022-09-12T01:36:24.065Z,3.90
2022-09-12T01:38:53.073Z,2.92
2022-09-12T01:41:22.592Z,2.67
2022-09-12T01:43:51.050Z,3.05
2022-09-12T01:46:18.584Z,2.53
2022-09-12T01:48:47.517Z,3.88
2022-09-12T01:51:18.237Z,3.00
2022-09-12T01:53:45.953Z,2.83
2022-09-12T01:56:15.004Z,3.72
2022-09-12T01:58:43.553Z,3.17
2022-09-12T02:01:11.443Z,2.50
2022-09-12T02:03:40.485Z,2.60
2022-09-12T02:06:09.612Z,2.47
2022-09-12T02:08:39.052Z,2.60
2022-09-12T02:11:07.557Z,2.92
2022-09-12T02:13:35.764Z,2.72
2022-09-12T02:16:04.657Z,2.72
2022-09-12T02:18:31.951Z,3.60
2022-09-12T02:21:00.091Z,3.03
2022-09-12T02:23:29.306Z,2.75
2022-09-12T02:25:57.592Z,3.05
2022-09-12T02:28:25.930Z,2.60
2022-09-12T02:30:55.471Z,2.55
2022-09-12T02:33:26.567Z,2.58
2022-09-12T02:35:54.283Z,3.55
2022-09-12T02:38:24.593Z,2.50
2022-09-12T02:40:53.235Z,2.38
2022-09-12T02:43:20.547Z,2.40
2022-09-12T02:45:47.874Z,5.05
2022-09-12T02:48:15.885Z,2.83
2022-09-12T02:50:43.214Z,3.35
2022-09-12T02:53:10.578Z,2.50
2022-09-12T02:55:37.948Z,3.00
2022-09-12T02:58:07.316Z,2.42
2022-09-12T03:00:35.412Z,5.88
2022-09-12T03:03:12.370Z,3.83
2022-09-12T03:05:41.088Z,2.70
2022-09-12T03:08:29.534Z,2.75
2022-09-12T03:11:01.115Z,3.88
2022-09-12T03:13:31.760Z,2.72
2022-09-12T03:16:02.378Z,5.32
2022-09-12T03:18:33.105Z,4.72
2022-09-12T03:21:01.997Z,4.35
2022-09-12T03:23:30.918Z,3.80
2022-09-12T03:25:58.664Z,3.33
2022-09-12T03:28:26.019Z,3.70
2022-09-12T03:30:56.388Z,2.88
2022-09-12T03:33:24.216Z,2.90
2022-09-12T03:35:51.547Z,3.35
2022-09-12T03:38:18.952Z,2.70
2022-09-12T03:40:47.221Z,3.58
2022-09-12T03:43:16.703Z,2.53
2022-09-12T03:45:44.030Z,2.67
2022-09-12T03:48:12.710Z,3.00
2022-09-12T03:50:40.032Z,2.47
2022-09-12T03:53:07.341Z,2.88
2022-09-12T03:55:34.664Z,2.42
2022-09-12T03:58:01.971Z,5.10
2022-09-12T04:00:29.293Z,3.75
2022-09-12T04:02:57.051Z,3.72
2022-09-12T04:05:25.889Z,3.85
2022-09-12T04:07:53.179Z,2.70
2022-09-12T04:10:20.504Z,3.13
2022-09-12T04:12:47.912Z,2.70
2022-09-12T04:15:15.344Z,3.17
2022-09-12T04:17:42.651Z,3.45
2022-09-12T04:20:10.132Z,2.50
2022-09-12T04:22:38.781Z,4.15
2022-09-12T04:25:06.588Z,2.78
2022-09-12T04:27:33.898Z,4.18
2022-09-12T04:30:01.856Z,3.17
2022-09-12T04:32:30.082Z,6.10
2022-09-12T04:34:57.396Z,2.80
2022-09-12T04:37:24.713Z,4.70
2022-09-12T04:39:57.565Z,2.70
2022-09-12T04:42:24.984Z,3.42
2022-09-12T04:44:52.298Z,2.67
2022-09-12T04:47:19.643Z,3.22
2022-09-12T04:49:46.960Z,2.40
2022-09-12T04:52:14.276Z,3.33
2022-09-12T04:54:41.714Z,3.10
2022-09-12T04:57:10.334Z,3.25
2022-09-12T04:59:37.638Z,3.38
2022-09-12T05:02:05.196Z,3.08
2022-09-12T05:04:32.514Z,3.60
2022-09-12T05:06:59.885Z,3.15
2022-09-12T05:09:27.345Z,4.10
2022-09-12T05:12:09.937Z,5.47
2022-09-12T05:14:38.603Z,3.40
2022-09-12T05:17:06.008Z,5.15
2022-09-12T05:19:33.388Z,3.53
2022-09-12T05:22:00.763Z,3.13
2022-09-12T05:24:28.049Z,3.63
2022-09-12T05:26:55.372Z,5.78
2022-09-12T05:29:22.694Z,4.57
2022-09-12T05:31:52.058Z,6.63
2022-09-12T05:34:19.413Z,3.35
2022-09-12T05:36:46.733Z,3.53
2022-09-12T05:39:14.054Z,3.92
2022-09-12T05:41:41.343Z,9.93
2022-09-12T05:44:11.480Z,3.83
2022-09-12T05:46:39.183Z,4.63
2022-09-12T05:49:08.278Z,3.83
2022-09-12T05:51:36.322Z,5.82
2022-09-12T05:54:03.886Z,4.30
2022-09-12T05:56:31.604Z,4.30
2022-09-12T05:58:59.334Z,4.00
2022-09-12T06:01:27.102Z,4.00
2022-09-12T06:03:55.117Z,4.40
2022-09-12T06:06:24.649Z,4.13
2022-09-12T06:08:52.637Z,4.40
2022-09-12T06:11:20.621Z,6.00
2022-09-12T06:13:47.927Z,7.75
2022-09-12T06:16:15.560Z,5.07
2022-09-12T06:18:42.972Z,7.25
2022-09-12T06:21:10.624Z,4.90
2022-09-12T06:23:39.277Z,11.07
2022-09-12T06:26:07.638Z,7.07
2022-09-12T06:28:35.912Z,5.95
2022-09-12T06:31:04.421Z,7.32
2022-09-12T06:33:32.998Z,9.95
2022-09-12T06:36:07.892Z,10.95
2022-09-12T06:38:39.285Z,6.03
2022-09-12T06:41:07.074Z,5.57
2022-09-12T06:43:34.474Z,5.45
2022-09-12T06:46:01.926Z,8.95
2022-09-12T06:48:29.321Z,8.35
2022-09-12T06:50:57.545Z,8.77
2022-09-12T06:53:25.047Z,7.32
2022-09-12T06:55:59.706Z,6.88
2022-09-12T06:58:27.129Z,12.75
2022-09-12T07:00:58.964Z,9.82
2022-09-12T07:03:26.419Z,7.10
2022-09-12T07:05:53.726Z,10.63
2022-09-12T07:08:21.028Z,9.57
2022-09-12T07:10:48.323Z,10.00
2022-09-12T07:13:17.008Z,8.23
2022-09-12T07:15:44.298Z,7.50
2022-09-12T07:18:11.689Z,11.70
2022-09-12T07:20:39.705Z,15.30
2022-09-12T07:23:07.025Z,13.02
2022-09-12T07:25:34.345Z,36.17
2022-09-12T07:28:02.244Z,21.23
2022-09-12T07:30:30.908Z,14.63
2022-09-12T07:32:58.204Z,15.57
2022-09-12T07:35:25.760Z,15.02
2022-09-12T07:37:53.041Z,20.70
2022-09-12T07:40:20.340Z,14.48
2022-09-12T07:42:47.858Z,12.50
2022-09-12T07:45:15.460Z,15.20
2022-09-12T07:47:44.277Z,13.48
2022-09-12T07:50:11.815Z,12.57
2022-09-12T07:52:39.104Z,9.20
2022-09-12T07:55:06.956Z,10.13
2022-09-12T07:57:34.239Z,12.80
2022-09-12T08:00:01.616Z,11.00
2022-09-12T08:02:29.323Z,10.55
2022-09-12T08:04:58.068Z,12.57
2022-09-12T08:07:25.345Z,9.27
2022-09-12T08:09:53.391Z,14.80
2022-09-12T08:12:20.773Z,16.02
2022-09-12T08:14:48.261Z,18.58
2022-09-12T08:17:15.576Z,15.48
2022-09-12T08:19:43.574Z,15.57
2022-09-12T08:22:12.215Z,20.00
2022-09-12T08:24:40.380Z,11.43
2022-09-12T08:27:07.711Z,14.23
2022-09-12T08:29:35.002Z,21.38
2022-09-12T08:32:02.351Z,20.50
2022-09-12T08:34:29.662Z,18.40
2022-09-12T08:36:57.572Z,19.35
2022-09-12T08:39:26.233Z,30.10
2022-09-12T08:41:57.516Z,28.60
2022-09-12T08:44:30.833Z,26.52
2022-09-12T08:47:02.738Z,27.00
2022-09-12T08:49:30.982Z,22.60
2022-09-12T08:51:58.757Z,25.20
2022-09-12T08:54:30.481Z,22.05
2022-09-12T08:57:01.351Z,20.88
2022-09-12T08:59:28.674Z,25.17
2022-09-12T09:01:58.426Z,28.08
2022-09-12T09:04:29.171Z,22.92
2022-09-12T09:07:08.759Z,26.58
2022-09-12T09:09:40.832Z,28.90
2022-09-12T09:12:08.832Z,28.08
2022-09-12T09:14:50.299Z,26.25
2022-09-12T09:17:21.545Z,32.10
2022-09-12T09:19:51.111Z,34.80
2022-09-12T09:22:19.872Z,29.63
2022-09-12T09:24:49.243Z,26.38
2022-09-12T09:27:39.408Z,31.30
2022-09-12T09:30:09.875Z,25.58
2022-09-12T09:32:37.844Z,28.85
2022-09-12T09:35:12.543Z,31.10
2022-09-12T09:37:40.500Z,42.75
2022-09-12T09:40:11.998Z,27.63
2022-09-12T09:42:41.447Z,34.85
2022-09-12T09:45:12.846Z,22.40
2022-09-12T09:47:40.179Z,30.73
2022-09-12T09:50:07.836Z,27.77
2022-09-12T09:52:35.765Z,23.67
2022-09-12T09:55:03.046Z,26.23
2022-09-12T09:57:44.809Z,23.90
2022-09-12T10:00:21.801Z,23.88
2022-09-12T10:02:59.192Z,26.73
2022-09-12T10:05:26.536Z,25.17
2022-09-12T10:07:54.046Z,21.42
2022-09-12T10:10:22.753Z,24.08
2022-09-12T10:12:51.379Z,25.42
2022-09-12T10:15:19.022Z,22.33
2022-09-12T10:17:46.698Z,23.90
2022-09-12T10:20:28.952Z,22.25
2022-09-12T10:22:56.271Z,22.08
2022-09-12T10:25:23.603Z,18.33
2022-09-12T10:27:56.378Z,20.85
2022-09-12T10:30:25.808Z,18.90
2022-09-12T10:32:54.045Z,18.45
2022-09-12T10:35:21.909Z,18.88
2022-09-12T10:37:53.576Z,16.98
2022-09-12T10:40:22.447Z,15.25
2022-09-12T10:42:50.978Z,14.98
2022-09-12T10:45:24.653Z,12.70
2022-09-12T10:47:52.130Z,16.08
2022-09-12T10:50:23.363Z,14.25
2022-09-12T10:52:50.968Z,12.25
2022-09-12T10:55:18.442Z,15.50
2022-09-12T10:57:54.854Z,17.40
2022-09-12T11:00:27.746Z,14.18
2022-09-12T11:02:58.830Z,14.65
2022-09-12T11:05:38.865Z,14.05
2022-09-12T11:08:10.068Z,13.93
2022-09-12T11:10:43.740Z,16.75
2022-09-12T11:13:15.044Z,13.07
2022-09-12T11:15:47.480Z,13.27
2022-09-12T11:18:17.186Z,11.57
2022-09-12T11:20:52.084Z,11.65
2022-09-12T11:23:37.259Z,9.00
2022-09-12T11:26:05.910Z,17.33
2022-09-12T11:28:35.971Z,13.32
2022-09-12T11:31:18.331Z,10.50
2022-09-12T11:33:47.701Z,9.23
2022-09-12T11:36:22.537Z,9.65
2022-09-12T11:38:53.319Z,13.10
2022-09-12T11:41:22.130Z,9.63
2022-09-12T11:43:49.707Z,9.93
2022-09-12T11:46:18.643Z,11.05
2022-09-12T11:48:48.248Z,10.57
2022-09-12T11:51:19.776Z,12.23
2022-09-12T11:53:48.765Z,9.73
2022-09-12T11:56:16.788Z,9.68
2022-09-12T11:58:44.215Z,15.00
2022-09-12T12:01:13.058Z,13.75
2022-09-12T12:03:41.370Z,9.73
2022-09-12T12:06:11.926Z,10.82
2022-09-12T12:08:39.732Z,13.93
2022-09-12T12:11:07.921Z,7.05
2022-09-12T12:13:35.932Z,8.40
2022-09-12T12:16:04.796Z,12.45
2022-09-12T12:18:32.594Z,10.55
2022-09-12T12:21:14.847Z,7.68
2022-09-12T12:23:43.500Z,9.10
2022-09-12T12:26:11.012Z,7.93
2022-09-12T12:28:57.087Z,7.85
2022-09-12T12:31:24.590Z,5.63
2022-09-12T12:33:56.449Z,7.13
2022-09-12T12:36:31.067Z,5.80
2022-09-12T12:38:59.785Z,6.18
2022-09-12T12:41:43.396Z,9.70
2022-09-12T12:44:25.599Z,9.18
2022-09-12T12:47:07.790Z,7.32
2022-09-12T12:49:35.094Z,5.80
2022-09-12T12:52:02.515Z,6.15
2022-09-12T12:54:50.583Z,7.32
2022-09-12T12:57:19.877Z,8.50
2022-09-12T12:59:48.075Z,7.75
2022-09-12T13:02:16.501Z,4.65
2022-09-12T13:04:43.824Z,5.60
2022-09-12T13:07:14.387Z,5.70
2022-09-12T13:09:44.275Z,5.03
2022-09-12T13:12:12.293Z,7.18
2022-09-12T13:14:51.431Z,4.70
2022-09-12T13:17:20.848Z,5.63
2022-09-12T13:19:48.307Z,4.82
2022-09-12T13:22:15.601Z,5.47
2022-09-12T13:24:47.452Z,5.40
2022-09-12T13:27:18.614Z,4.90
2022-09-12T13:29:45.906Z,4.25
2022-09-12T13:32:14.548Z,5.78
2022-09-12T13:34:45.811Z,5.60
2022-09-12T13:37:23.303Z,4.60
2022-09-12T13:39:51.385Z,4.22
2022-09-12T13:42:26.704Z,4.10
2022-09-12T13:44:54.872Z,7.70
2022-09-12T13:47:24.739Z,12.13
2022-09-12T13:49:52.179Z,5.07
2022-09-12T13:52:19.944Z,6.07
2022-09-12T13:54:48.054Z,15.68
2022-09-12T13:57:27.722Z,8.60
2022-09-12T13:59:55.874Z,5.22
2022-09-12T14:02:25.170Z,5.55
2022-09-12T14:05:10.346Z,7.97
2022-09-12T14:07:54.490Z,6.55
2022-09-12T14:10:22.916Z,8.88
2022-09-12T14:12:51.788Z,9.10
2022-09-12T14:15:22.129Z,9.55
2022-09-12T14:17:52.614Z,6.57
2022-09-12T14:20:20.166Z,10.90
2022-09-12T14:22:51.070Z,5.57
2022-09-12T14:25:19.636Z,6.57
2022-09-12T14:27:49.295Z,6.85
2022-09-12T14:30:23.852Z,7.65
2022-09-12T14:33:05.430Z,5.55
2022-09-12T14:35:33.497Z,6.15
2022-09-12T14:38:06.361Z,7.53
2022-09-12T14:40:33.630Z,9.23
2022-09-12T14:43:01.334Z,6.57
2022-09-12T14:45:29.630Z,7.25
2022-09-12T14:47:56.957Z,7.93
2022-09-12T14:50:26.136Z,6.18
2022-09-12T14:53:14.241Z,5.45
2022-09-12T14:55:43.390Z,6.13
2022-09-12T14:58:13.813Z,5.75
2022-09-12T15:00:52.442Z,5.75
2022-09-12T15:03:23.413Z,7.70
2022-09-12T15:05:52.045Z,5.55
2022-09-12T15:08:19.315Z,5.97
2022-09-12T15:10:46.602Z,7.85
2022-09-12T15:13:15.111Z,10.65
2022-09-12T15:15:42.923Z,8.95
2022-09-12T15:18:10.273Z,6.95
2022-09-12T15:20:37.764Z,7.05
2022-09-12T15:23:06.920Z,10.80
2022-09-12T15:25:34.227Z,5.28
2022-09-12T15:28:01.795Z,6.15
2022-09-12T15:30:29.090Z,5.60
2022-09-12T15:32:56.382Z,5.88
2022-09-12T15:35:24.794Z,5.93
2022-09-12T15:37:52.331Z,5.57
2022-09-12T15:40:21.181Z,5.57
2022-09-12T15:42:48.516Z,4.55
2022-09-12T15:45:17.356Z,6.63
2022-09-12T15:47:44.645Z,8.07
2022-09-12T15:50:12.078Z,6.82
2022-09-12T15:52:39.502Z,6.03
2022-09-12T15:55:07.246Z,6.28
2022-09-12T15:57:35.887Z,5.50
2022-09-12T16:00:05.328Z,9.57
2022-09-12T16:02:32.669Z,4.97
2022-09-12T16:05:00.121Z,5.85
2022-09-12T16:07:27.593Z,6.20
2022-09-12T16:09:54.935Z,4.40
2022-09-12T16:12:22.420Z,4.70
2022-09-12T16:14:51.071Z,5.35
2022-09-12T16:17:18.377Z,5.20
2022-09-12T16:19:45.690Z,6.55
2022-09-12T16:22:12.962Z,6.03
2022-09-12T16:24:40.275Z,6.20
2022-09-12T16:27:07.785Z,6.28
2022-09-12T16:29:35.098Z,4.25
2022-09-12T16:32:04.163Z,6.82
2022-09-12T16:34:31.485Z,4.13
2022-09-12T16:36:58.799Z,4.90
2022-09-12T16:39:26.229Z,4.85
2022-09-12T16:41:53.544Z,6.35
2022-09-12T16:44:20.847Z,5.13
2022-09-12T16:46:49.913Z,4.15
2022-09-12T16:49:18.624Z,4.97
2022-09-12T16:51:47.508Z,6.05
2022-09-12T16:54:15.621Z,9.05
2022-09-12T16:56:42.928Z,7.03
2022-09-12T16:59:12.184Z,5.75
2022-09-12T17:01:39.503Z,8.30
2022-09-12T17:04:06.989Z,8.82
2022-09-12T17:06:35.635Z,5.07
2022-09-12T17:09:03.495Z,6.65
2022-09-12T17:11:31.657Z,6.05
2022-09-12T17:14:07.278Z,6.35
2022-09-12T17:16:35.211Z,7.35
2022-09-12T17:19:02.505Z,7.10
2022-09-12T17:21:29.833Z,5.68
2022-09-12T17:23:59.103Z,6.78
2022-09-12T17:26:26.624Z,6.78
2022-09-12T17:28:53.920Z,7.70
2022-09-12T17:31:21.243Z,6.00
2022-09-12T17:33:48.886Z,7.75
2022-09-12T17:36:16.755Z,5.72
2022-09-12T17:38:44.432Z,8.65
2022-09-12T17:41:17.769Z,13.68
2022-09-12T17:43:45.960Z,5.00
2022-09-12T17:46:13.436Z,12.07
2022-09-12T17:48:41.578Z,9.20
2022-09-12T17:51:09.269Z,13.90
2022-09-12T17:53:36.570Z,6.72
2022-09-12T17:56:04.380Z,8.52
2022-09-12T17:58:33.067Z,6.72
2022-09-12T18:01:21.156Z,8.60
2022-09-12T18:03:48.581Z,7.60
2022-09-12T18:06:16.099Z,13.95
2022-09-12T18:08:43.383Z,6.35
2022-09-12T18:11:10.683Z,6.95
2022-09-12T18:13:39.299Z,9.00
2022-09-12T18:16:07.088Z,4.28
2022-09-12T18:18:34.513Z,14.35
2022-09-12T18:21:01.802Z,6.35
2022-09-12T18:23:29.131Z,4.07
2022-09-12T18:25:59.492Z,6.53
2022-09-12T18:28:26.928Z,7.90
2022-09-12T18:30:55.680Z,5.32
2022-09-12T18:33:24.259Z,11.38
2022-09-12T18:35:51.700Z,9.63
2022-09-12T18:38:19.004Z,4.60
2022-09-12T18:40:46.321Z,6.07
2022-09-12T18:43:14.241Z,7.93
2022-09-12T18:45:41.591Z,6.22
2022-09-12T18:48:10.923Z,4.65
2022-09-12T18:50:38.229Z,6.30
2022-09-12T18:53:05.669Z,5.38
2022-09-12T18:55:33.064Z,8.65
2022-09-12T18:58:00.374Z,5.57
2022-09-12T19:00:27.787Z,9.20
2022-09-12T19:02:55.202Z,5.88
2022-09-12T19:05:23.906Z,10.63
2022-09-12T19:07:51.182Z,7.05
2022-09-12T19:10:19.555Z,6.00
2022-09-12T19:12:46.873Z,4.97
2022-09-12T19:15:14.169Z,7.10
2022-09-12T19:17:41.485Z,11.82
2022-09-12T19:20:09.141Z,8.18
2022-09-12T19:22:37.826Z,4.00
2022-09-12T19:25:05.444Z,14.98
2022-09-12T19:27:32.729Z,9.73
2022-09-12T19:30:00.047Z,4.78
2022-09-12T19:32:27.359Z,5.10
2022-09-12T19:34:54.622Z,10.80
2022-09-12T19:37:21.900Z,6.25
2022-09-12T19:39:50.640Z,7.25
2022-09-12T19:42:17.988Z,8.57
2022-09-12T19:44:45.344Z,9.00
2022-09-12T19:47:12.649Z,8.02
2022-09-12T19:49:39.942Z,4.93
2022-09-12T19:52:07.822Z,7.63
2022-09-12T19:54:35.568Z,6.80
2022-09-12T19:57:04.355Z,8.15
2022-09-12T19:59:31.644Z,4.78
2022-09-12T20:01:59.023Z,4.40
2022-09-12T20:04:26.428Z,3.72
2022-09-12T20:06:53.723Z,9.60
2022-09-12T20:09:21.039Z,5.50
2022-09-12T20:11:48.346Z,4.30
2022-09-12T20:14:16.971Z,9.32
2022-09-12T20:16:45.481Z,8.65
2022-09-12T20:19:12.851Z,9.70
2022-09-12T20:21:40.345Z,9.18
2022-09-12T20:24:08.159Z,12.48
2022-09-12T20:26:35.516Z,5.50
2022-09-12T20:29:03.164Z,8.43
2022-09-12T20:31:31.958Z,6.07
2022-09-12T20:33:59.341Z,8.25
2022-09-12T20:36:26.628Z,5.63
2022-09-12T20:38:56.441Z,6.28
2022-09-12T20:41:23.826Z,3.95
2022-09-12T20:43:51.182Z,5.95
2022-09-12T20:46:21.608Z,6.43
2022-09-12T20:48:51.017Z,7.70
2022-09-12T20:51:18.344Z,7.75
2022-09-12T20:53:45.628Z,11.45
2022-09-12T20:56:14.375Z,8.82
2022-09-12T20:58:44.074Z,7.78
2022-09-12T21:01:12.210Z,11.07
2022-09-12T21:03:39.589Z,8.85
2022-09-12T21:06:08.780Z,9.98
2022-09-12T21:08:36.175Z,8.68
2022-09-12T21:11:03.546Z,7.25
2022-09-12T21:13:30.830Z,8.25
2022-09-12T21:16:01.293Z,9.68
2022-09-12T21:18:28.643Z,8.13
2022-09-12T21:20:56.140Z,6.88
2022-09-12T21:23:25.120Z,5.10
2022-09-12T21:25:52.841Z,3.95
2022-09-12T21:28:20.297Z,5.13
2022-09-12T21:30:48.461Z,5.90
2022-09-12T21:33:16.896Z,9.20
2022-09-12T21:35:44.339Z,10.75
2022-09-12T21:38:11.666Z,4.88
2022-09-12T21:40:40.272Z,15.30
2022-09-12T21:43:12.323Z,7.30
2022-09-12T21:45:40.165Z,8.70
2022-09-12T21:48:07.580Z,5.55
2022-09-12T21:50:34.858Z,6.35
2022-09-12T21:53:02.155Z,6.07
2022-09-12T21:55:29.592Z,5.32
2022-09-12T21:57:58.260Z,4.10
2022-09-12T22:00:25.545Z,5.60
2022-09-12T22:02:53.651Z,6.57
2022-09-12T22:05:21.524Z,3.67
2022-09-12T22:07:48.829Z,5.65
2022-09-12T22:10:16.186Z,7.72
2022-09-12T22:12:46.075Z,7.18
2022-09-12T22:15:39.447Z,4.90
2022-09-12T22:18:02.380Z,3.47
2022-09-12T22:20:29.685Z,3.63
2022-09-12T22:23:14.388Z,3.58
2022-09-12T22:25:41.670Z,3.80
2022-09-12T22:28:08.962Z,6.32
2022-09-12T22:30:38.136Z,6.00
2022-09-12T22:33:05.446Z,4.18
2022-09-12T22:35:32.790Z,4.00
2022-09-12T22:38:00.103Z,6.45
2022-09-12T22:40:27.424Z,3.97
2022-09-12T22:42:54.927Z,3.67
2022-09-12T22:45:22.205Z,3.83
2022-09-12T22:47:50.851Z,4.50
2022-09-12T22:50:18.146Z,5.88
2022-09-12T22:52:45.447Z,4.53
2022-09-12T22:55:13.034Z,7.75
2022-09-12T22:57:40.339Z,4.85
2022-09-12T23:00:10.340Z,5.18
2022-09-12T23:02:37.895Z,8.43
2022-09-12T23:05:07.022Z,4.90
2022-09-12T23:07:34.366Z,5.10
2022-09-12T23:10:01.672Z,3.95
2022-09-12T23:12:28.949Z,5.13
2022-09-12T23:14:56.268Z,3.65
2022-09-12T23:17:23.583Z,4.20
2022-09-12T23:19:50.884Z,4.00
2022-09-12T23:22:19.527Z,3.88
2022-09-12T23:24:47.021Z,4.22
2022-09-12T23:27:14.336Z,4.57
2022-09-12T23:29:41.643Z,7.07
2022-09-12T23:32:08.950Z,5.90
2022-09-12T23:34:36.267Z,14.57
2022-09-12T23:37:03.574Z,8.95
2022-09-12T23:39:32.278Z,18.42
2022-09-12T23:41:59.591Z,8.57
2022-09-12T23:44:26.883Z,8.25
2022-09-12T23:46:54.169Z,7.55
2022-09-12T23:49:21.561Z,6.43
2022-09-12T23:51:48.882Z,9.90
2022-09-12T23:54:16.204Z,7.85
2022-09-12T23:56:44.859Z,4.60
2022-09-12T23:59:12.141Z,5.63
